Time;durP1;ratioP1;P1;durP2;ratioP2;P2;SDS_P1;SDS_P2;PMS_P1;PMS_P2;Temp;Humidity;BMP_temperature;BMP_pressure;BME280_temperature;BME280_humidity;BME280_pressure;Samples;Min_cycle;Max_cycle;Signal;HPM_P1;HPM_P2
2022/05/08 00:01:39;;;;;;;38.00;33.63;;;11.60;99.90;;;;;;5028265;28;20464;-67
2022/05/08 00:04:06;;;;;;;35.73;31.97;;;11.70;99.90;;;;;;5024174;28;20793;-66
2022/05/08 00:06:34;;;;;;;37.73;32.97;;;11.60;99.90;;;;;;5026915;28;20834;-68
2022/05/08 00:09:01;;;;;;;40.47;33.60;;;11.60;99.90;;;;;;5026579;28;20461;-66
2022/05/08 00:11:28;;;;;;;40.73;35.23;;;11.60;99.90;;;;;;5029997;28;20464;-67
2022/05/08 00:13:56;;;;;;;39.10;34.90;;;11.60;99.90;;;;;;5025826;28;21418;-67
2022/05/08 00:16:23;;;;;;;40.37;35.53;;;11.70;99.90;;;;;;5031238;28;20465;-66
2022/05/08 00:18:50;;;;;;;38.23;34.20;;;11.80;99.90;;;;;;5028281;28;20554;-67
2022/05/08 00:21:18;;;;;;;40.60;34.30;;;11.90;99.90;;;;;;5030277;28;20472;-66
2022/05/08 00:23:46;;;;;;;41.73;36.30;;;11.90;99.90;;;;;;5025516;28;20479;-66
2022/05/08 00:26:13;;;;;;;43.20;33.40;;;12.00;99.90;;;;;;5026637;28;20468;-66
2022/05/08 00:28:40;;;;;;;41.37;34.23;;;12.10;99.90;;;;;;5027509;28;20957;-66
2022/05/08 00:31:09;;;;;;;40.07;33.30;;;12.10;99.90;;;;;;5028515;28;20825;-66
2022/05/08 00:33:36;;;;;;;43.07;36.60;;;12.10;99.90;;;;;;5024215;28;20480;-67
2022/05/08 00:36:03;;;;;;;44.47;37.50;;;12.20;99.90;;;;;;5030037;28;20456;-67
2022/05/08 00:38:30;;;;;;;41.93;35.93;;;12.20;99.90;;;;;;5031957;28;20483;-65
2022/05/08 00:40:59;;;;;;;44.27;37.73;;;12.30;99.90;;;;;;5033142;28;20467;-66
2022/05/08 00:43:32;;;;;;;46.17;37.07;;;12.30;99.90;;;;;;5027407;28;20466;-67
2022/05/08 00:46:00;;;;;;;48.97;39.30;;;12.30;99.90;;;;;;5030775;28;20503;-66
2022/05/08 00:48:27;;;;;;;41.63;37.00;;;12.30;99.90;;;;;;5031799;28;20467;-66
2022/05/08 00:50:55;;;;;;;42.77;37.10;;;12.30;99.90;;;;;;5029309;28;20523;-67
2022/05/08 00:53:25;;;;;;;48.90;37.83;;;12.30;99.90;;;;;;5032532;28;20472;-66
2022/05/08 00:55:54;;;;;;;54.13;37.23;;;12.30;99.90;;;;;;5029883;28;20685;-66
2022/05/08 00:58:22;;;;;;;48.67;38.33;;;12.40;99.90;;;;;;5033712;28;20499;-67
2022/05/08 01:00:49;;;;;;;43.20;35.93;;;12.40;99.90;;;;;;5031287;28;20460;-66
2022/05/08 01:03:16;;;;;;;40.80;35.17;;;12.30;99.90;;;;;;5028523;28;20977;-67
2022/05/08 01:05:44;;;;;;;40.83;36.43;;;12.30;99.90;;;;;;5035000;28;20549;-67
2022/05/08 01:08:12;;;;;;;40.73;36.43;;;12.40;99.90;;;;;;5032533;28;20471;-66
2022/05/08 01:10:39;;;;;;;43.23;35.40;;;12.40;99.90;;;;;;5029055;28;20933;-66
2022/05/08 01:13:07;;;;;;;41.33;35.37;;;12.30;99.90;;;;;;5029617;28;20476;-65
2022/05/08 01:15:42;;;;;;;42.50;34.90;;;12.30;99.90;;;;;;5026582;28;20485;-66
2022/05/08 01:18:11;;;;;;;38.57;33.80;;;12.30;99.90;;;;;;5025736;28;20514;-69
2022/05/08 01:20:39;;;;;;;39.13;32.50;;;12.40;99.90;;;;;;5032945;28;20833;-66
2022/05/08 01:23:08;;;;;;;40.40;33.60;;;12.30;99.90;;;;;;5031031;28;20825;-66
2022/05/08 01:25:36;;;;;;;38.93;34.00;;;12.40;99.90;;;;;;5026945;28;20471;-67
2022/05/08 01:28:04;;;;;;;37.50;32.00;;;12.40;99.90;;;;;;5030590;28;20461;-67
2022/05/08 01:30:32;;;;;;;35.17;31.37;;;12.40;99.90;;;;;;5031299;28;20502;-67
2022/05/08 01:33:00;;;;;;;40.50;33.03;;;12.50;99.90;;;;;;5033016;28;20505;-66
2022/05/08 01:35:27;;;;;;;39.80;30.37;;;12.60;99.90;;;;;;5031034;28;20504;-66
2022/05/08 01:37:54;;;;;;;36.63;32.67;;;12.60;99.90;;;;;;5035523;28;20805;-66
2022/05/08 01:40:24;;;;;;;35.07;30.90;;;12.70;99.90;;;;;;5029717;28;20480;-66
2022/05/08 01:42:51;;;;;;;31.70;28.47;;;12.70;99.90;;;;;;5032918;28;20464;-66
2022/05/08 01:45:19;;;;;;;35.80;29.37;;;12.70;99.90;;;;;;5031289;28;20831;-67
2022/05/08 01:50:30;;;;;;;33.17;26.87;;;12.60;99.90;;;;;;5027797;28;20871;-68
2022/05/08 01:52:58;;;;;;;31.47;25.87;;;12.60;99.90;;;;;;5032277;28;20918;-67
2022/05/08 01:55:26;;;;;;;32.80;27.17;;;12.60;99.90;;;;;;5026708;28;20491;-67
2022/05/08 01:57:54;;;;;;;32.40;27.13;;;12.60;99.90;;;;;;5029927;28;20617;-66
2022/05/08 02:00:22;;;;;;;26.63;24.20;;;12.60;99.90;;;;;;5026289;28;21032;-67
2022/05/08 02:02:50;;;;;;;27.50;23.43;;;12.60;99.90;;;;;;5034995;28;20453;-67
2022/05/08 02:05:17;;;;;;;26.30;23.80;;;12.60;99.90;;;;;;5030278;28;21050;-67
2022/05/08 02:07:45;;;;;;;26.50;23.83;;;12.60;99.90;;;;;;5024023;28;20481;-66
2022/05/08 02:10:12;;;;;;;24.60;22.00;;;12.50;99.90;;;;;;5026508;28;20464;-66
2022/05/08 02:12:41;;;;;;;25.97;23.10;;;12.50;99.90;;;;;;5030235;28;20499;-66
2022/05/08 02:15:10;;;;;;;23.00;21.13;;;12.50;99.90;;;;;;5031256;28;21039;-67
2022/05/08 02:17:38;;;;;;;24.93;22.17;;;12.50;99.90;;;;;;5026310;28;22690;-67
2022/05/08 02:20:07;;;;;;;22.73;20.73;;;12.60;99.90;;;;;;5033482;28;20908;-67
2022/05/08 02:22:34;;;;;;;23.07;20.83;;;12.50;99.90;;;;;;5030110;28;21283;-67
2022/05/08 02:25:16;;;;;;;21.60;19.50;;;12.50;99.90;;;;;;5030480;28;20974;-68
2022/05/08 02:27:49;;;;;;;24.57;20.47;;;12.40;99.90;;;;;;5026648;28;20456;-67
2022/05/08 02:30:17;;;;;;;23.20;20.50;;;12.40;99.90;;;;;;5030185;28;20460;-66
2022/05/08 02:32:44;;;;;;;19.60;17.60;;;12.30;99.90;;;;;;5026482;28;20491;-67
2022/05/08 02:35:11;;;;;;;22.20;19.20;;;12.30;99.90;;;;;;5029825;28;20476;-67
2022/05/08 02:37:39;;;;;;;20.73;18.73;;;12.20;99.90;;;;;;5025142;28;20467;-68
2022/05/08 02:40:08;;;;;;;19.87;17.73;;;12.30;99.90;;;;;;5030209;28;20522;-67
2022/05/08 02:42:35;;;;;;;20.03;18.13;;;12.30;99.90;;;;;;5027151;28;20461;-67
2022/05/08 02:45:04;;;;;;;20.20;18.17;;;12.30;99.90;;;;;;5032879;28;20480;-67
2022/05/08 02:47:33;;;;;;;21.00;18.80;;;12.40;99.90;;;;;;5030670;28;20999;-66
2022/05/08 02:49:59;;;;;;;20.97;18.80;;;12.30;99.90;;;;;;5030792;28;20830;-68
2022/05/08 02:52:26;;;;;;;18.90;17.07;;;12.30;99.90;;;;;;5025463;28;20473;-67
2022/05/08 02:54:53;;;;;;;19.43;17.43;;;12.40;99.90;;;;;;5025401;28;20465;-67
2022/05/08 03:00:07;;;;;;;20.20;17.63;;;12.40;99.90;;;;;;5026871;28;20498;-67
2022/05/08 03:02:35;;;;;;;19.70;17.60;;;12.40;99.90;;;;;;5028881;28;20925;-67
2022/05/08 03:05:04;;;;;;;20.17;16.47;;;12.50;99.90;;;;;;5029664;28;21084;-69
2022/05/08 03:07:31;;;;;;;17.30;15.50;;;12.40;99.90;;;;;;5028407;28;20463;-67
2022/05/08 03:09:58;;;;;;;17.77;16.23;;;12.50;99.90;;;;;;5030807;28;21059;-68
2022/05/08 03:12:25;;;;;;;18.17;16.40;;;12.40;99.90;;;;;;5024462;28;20469;-67
2022/05/08 03:14:52;;;;;;;19.07;16.30;;;12.40;99.90;;;;;;5027908;28;20471;-67
2022/05/08 03:17:20;;;;;;;16.63;15.13;;;12.40;99.90;;;;;;5025086;28;20472;-67
2022/05/08 03:19:48;;;;;;;16.80;15.30;;;12.40;99.90;;;;;;5025844;28;20856;-68
2022/05/08 03:22:15;;;;;;;20.77;16.70;;;12.40;99.90;;;;;;5029976;28;20475;-67
2022/05/08 03:24:42;;;;;;;17.50;15.57;;;12.40;99.90;;;;;;5029983;28;20497;-67
2022/05/08 03:27:09;;;;;;;16.93;15.33;;;12.40;99.90;;;;;;5030620;28;20468;-67
2022/05/08 03:29:36;;;;;;;16.50;14.80;;;12.40;99.90;;;;;;5026499;28;20479;-67
2022/05/08 03:32:03;;;;;;;16.30;14.70;;;12.50;99.90;;;;;;5025336;28;20480;-68
2022/05/08 03:34:32;;;;;;;22.77;16.10;;;12.50;99.90;;;;;;5027878;28;20479;-67
2022/05/08 03:36:58;;;;;;;20.10;16.97;;;12.40;99.90;;;;;;5024700;28;20467;-67
2022/05/08 03:39:25;;;;;;;17.67;15.87;;;12.50;99.90;;;;;;5027389;28;21034;-68
2022/05/08 03:41:52;;;;;;;17.83;15.73;;;12.50;99.90;;;;;;5032744;28;20666;-68
2022/05/08 03:44:19;;;;;;;17.30;15.50;;;12.40;99.90;;;;;;5023873;28;20468;-68
2022/05/08 03:46:46;;;;;;;16.97;15.40;;;12.50;99.90;;;;;;5025996;28;20468;-67
2022/05/08 03:49:13;;;;;;;15.97;14.60;;;12.50;99.90;;;;;;5028448;28;20468;-67
2022/05/08 03:51:41;;;;;;;16.57;15.17;;;12.40;99.90;;;;;;5031654;28;20478;-67
2022/05/08 03:54:09;;;;;;;17.20;15.40;;;12.30;99.90;;;;;;5028369;28;21003;-67
2022/05/08 03:56:36;;;;;;;16.03;14.33;;;12.30;99.90;;;;;;5028594;28;20966;-67
2022/05/08 03:59:03;;;;;;;16.50;14.90;;;12.40;99.90;;;;;;5025142;28;20480;-68
2022/05/08 04:01:29;;;;;;;17.33;14.60;;;12.40;99.90;;;;;;5022970;28;20469;-69
2022/05/08 04:03:56;;;;;;;16.43;14.93;;;12.50;99.90;;;;;;5004811;28;20967;-67
2022/05/08 04:06:24;;;;;;;16.43;15.03;;;12.50;99.90;;;;;;5010118;28;20472;-68
2022/05/08 04:08:53;;;;;;;17.10;15.40;;;12.40;99.90;;;;;;5023007;28;20670;-68
2022/05/08 04:11:20;;;;;;;15.90;14.50;;;12.40;99.90;;;;;;5007822;28;21101;-68
2022/05/08 04:13:48;;;;;;;17.57;15.77;;;12.30;99.90;;;;;;5001687;28;20464;-68
2022/05/08 04:16:16;;;;;;;17.33;15.67;;;12.30;99.90;;;;;;5006196;28;20464;-69
2022/05/08 04:18:44;;;;;;;17.23;14.83;;;12.30;99.90;;;;;;5007042;28;20981;-68
2022/05/08 04:21:11;;;;;;;18.80;16.87;;;12.10;99.90;;;;;;5006080;28;20570;-69
2022/05/08 04:26:23;;;;;;;16.80;15.17;;;11.90;99.90;;;;;;5005216;28;20459;-68
2022/05/08 04:28:50;;;;;;;20.60;17.07;;;11.80;99.90;;;;;;5004379;28;21354;-68
2022/05/08 04:31:17;;;;;;;22.57;17.10;;;11.80;99.90;;;;;;5020120;28;20543;-69
2022/05/08 04:33:45;;;;;;;17.83;15.73;;;11.80;99.90;;;;;;5029075;28;20462;-69
2022/05/08 04:36:12;;;;;;;20.20;16.80;;;11.80;99.90;;;;;;5032973;28;20931;-68
2022/05/08 04:38:39;;;;;;;18.17;16.47;;;11.80;99.90;;;;;;5030950;28;20911;-68
2022/05/08 04:41:06;;;;;;;20.93;18.80;;;11.80;99.90;;;;;;5006539;28;20468;-69
2022/05/08 04:43:35;;;;;;;21.43;18.60;;;11.90;99.90;;;;;;5005477;28;21634;-68
2022/05/08 04:46:01;;;;;;;23.70;19.73;;;11.70;99.90;;;;;;5005188;28;20910;-68
2022/05/08 04:48:28;;;;;;;24.50;19.50;;;11.90;99.90;;;;;;5005307;28;20452;-66
2022/05/08 04:50:55;;;;;;;30.97;19.67;;;11.90;99.90;;;;;;5008128;28;20474;-68
2022/05/08 04:56:03;;;;;;;25.33;20.17;;;11.90;99.90;;;;;;5006927;28;21218;-67
2022/05/08 04:58:33;;;;;;;30.80;18.40;;;11.90;99.90;;;;;;5005657;28;20492;-68
2022/05/08 05:01:01;;;;;;;25.37;19.83;;;12.20;99.90;;;;;;5005299;28;20837;-67
2022/05/08 05:03:28;;;;;;;23.90;21.10;;;12.20;99.90;;;;;;5005851;28;20471;-68
2022/05/08 05:05:55;;;;;;;23.23;19.60;;;12.30;99.90;;;;;;5006382;28;20484;-69
2022/05/08 05:08:21;;;;;;;27.23;20.90;;;12.30;99.90;;;;;;5005309;28;20903;-67
2022/05/08 05:10:49;;;;;;;26.60;20.20;;;12.30;99.90;;;;;;5005595;28;20473;-68
2022/05/08 05:13:15;;;;;;;27.10;22.23;;;12.40;99.90;;;;;;5004584;28;21044;-69
2022/05/08 05:15:44;;;;;;;28.53;20.57;;;12.30;99.90;;;;;;5004329;28;20812;-68
2022/05/08 05:18:11;;;;;;;25.03;21.20;;;12.20;99.90;;;;;;5004318;28;20908;-68
2022/05/08 05:20:38;;;;;;;29.63;23.40;;;12.10;99.90;;;;;;5006398;28;20883;-68
2022/05/08 05:23:05;;;;;;;30.53;22.30;;;12.20;99.90;;;;;;5004914;28;20463;-68
2022/05/08 05:25:32;;;;;;;24.90;20.70;;;12.20;99.90;;;;;;5002927;28;20472;-66
2022/05/08 05:27:59;;;;;;;25.87;21.70;;;12.40;99.90;;;;;;5032922;28;20465;-68
2022/05/08 05:30:26;;;;;;;23.83;21.20;;;12.30;99.90;;;;;;5029160;28;20463;-67
2022/05/08 05:32:54;;;;;;;26.77;22.40;;;12.30;99.90;;;;;;5026606;28;20500;-67
2022/05/08 05:35:21;;;;;;;23.50;20.53;;;12.20;99.90;;;;;;5006695;28;20453;-67
2022/05/08 05:37:48;;;;;;;23.77;21.67;;;12.30;99.90;;;;;;5004672;28;20468;-69
2022/05/08 05:40:15;;;;;;;22.10;19.70;;;12.40;99.90;;;;;;5006076;28;20629;-69
2022/05/08 05:42:43;;;;;;;31.30;20.63;;;12.30;99.90;;;;;;5005511;28;20503;-67
2022/05/08 05:45:10;;;;;;;21.27;19.10;;;12.20;99.90;;;;;;5005035;28;20468;-68
2022/05/08 05:47:52;;;;;;;24.70;19.20;;;12.30;99.90;;;;;;5006215;28;20950;-67
2022/05/08 05:50:21;;;;;;;21.90;19.77;;;12.20;99.90;;;;;;5005410;28;20538;-68
2022/05/08 05:52:49;;;;;;;21.97;19.77;;;12.40;99.90;;;;;;5018170;28;20468;-66
2022/05/08 05:55:16;;;;;;;22.37;19.97;;;12.40;99.90;;;;;;5025851;28;20479;-66
2022/05/08 05:57:43;;;;;;;22.17;19.83;;;12.40;99.90;;;;;;5004924;28;20856;-68
2022/05/08 06:00:11;;;;;;;20.27;18.10;;;12.60;99.90;;;;;;5004632;28;20496;-69
2022/05/08 06:02:40;;;;;;;24.93;18.87;;;12.70;99.90;;;;;;5000969;28;20469;-67
2022/05/08 06:05:07;;;;;;;24.33;19.43;;;12.80;99.90;;;;;;5003368;28;20504;-67
2022/05/08 06:07:36;;;;;;;21.83;18.60;;;12.80;99.90;;;;;;5004153;28;20886;-67
2022/05/08 06:10:05;;;;;;;20.20;18.30;;;12.90;99.90;;;;;;5003523;28;20464;-68
2022/05/08 06:12:33;;;;;;;19.63;17.53;;;12.90;99.90;;;;;;5002392;28;20826;-67
2022/05/08 06:15:00;;;;;;;26.53;18.50;;;12.90;99.90;;;;;;5003630;28;20523;-67
2022/05/08 06:17:27;;;;;;;20.03;18.37;;;13.20;99.90;;;;;;5002876;28;20468;-68
2022/05/08 06:19:54;;;;;;;20.40;18.27;;;13.20;99.90;;;;;;5003306;28;20838;-67
2022/05/08 06:22:21;;;;;;;21.07;19.10;;;13.50;99.90;;;;;;5004354;28;20479;-68
2022/05/08 06:24:50;;;;;;;21.30;19.20;;;13.90;99.90;;;;;;5029312;28;20476;-67
2022/05/08 06:27:17;;;;;;;20.00;18.10;;;14.10;99.90;;;;;;5021685;28;20465;-67
2022/05/08 06:29:43;;;;;;;19.63;17.77;;;14.20;99.90;;;;;;5000059;28;20460;-68
2022/05/08 06:32:10;;;;;;;20.00;18.20;;;14.20;99.90;;;;;;5001314;28;20924;-67
2022/05/08 06:34:37;;;;;;;20.43;18.53;;;14.10;99.90;;;;;;5002201;28;20534;-66
2022/05/08 06:37:04;;;;;;;22.90;19.50;;;14.00;99.90;;;;;;5000096;28;21243;-66
2022/05/08 06:39:33;;;;;;;22.20;19.93;;;14.00;99.90;;;;;;5001134;28;20584;-66
2022/05/08 06:42:01;;;;;;;20.80;18.73;;;13.60;99.90;;;;;;5011117;28;20463;-66
2022/05/08 06:44:28;;;;;;;21.17;19.10;;;13.80;99.90;;;;;;5025828;28;20464;-67
2022/05/08 06:46:56;;;;;;;21.20;19.23;;;13.60;99.90;;;;;;5004725;28;20979;-67
2022/05/08 06:49:22;;;;;;;22.07;20.00;;;13.60;99.90;;;;;;5001997;28;20484;-67
2022/05/08 06:51:50;;;;;;;25.43;19.40;;;13.60;99.90;;;;;;5002007;28;20833;-66
2022/05/08 06:54:17;;;;;;;21.90;19.77;;;13.70;99.90;;;;;;5002897;28;20512;-67
2022/05/08 06:56:44;;;;;;;20.83;18.80;;;13.90;99.90;;;;;;5001636;28;20509;-67
2022/05/08 07:02:02;;;;;;;20.67;18.77;;;14.00;99.90;;;;;;4981541;28;20484;-67
2022/05/08 07:04:29;;;;;;;21.80;19.73;;;14.00;99.90;;;;;;5002365;28;20577;-67
2022/05/08 07:06:56;;;;;;;18.90;17.23;;;14.10;99.90;;;;;;5001641;28;20491;-67
2022/05/08 07:09:22;;;;;;;19.60;17.80;;;13.90;99.90;;;;;;5001824;28;20464;-67
2022/05/08 07:11:49;;;;;;;20.30;18.43;;;13.80;99.90;;;;;;5002228;28;20472;-67
2022/05/08 07:14:18;;;;;;;22.00;17.40;;;13.80;99.90;;;;;;5002072;28;20803;-67
2022/05/08 07:16:45;;;;;;;19.80;18.00;;;13.70;99.90;;;;;;5001054;28;20504;-67
2022/05/08 07:19:12;;;;;;;19.53;17.70;;;13.80;99.90;;;;;;5002681;28;20913;-70
2022/05/08 07:21:39;;;;;;;20.80;18.50;;;13.80;99.90;;;;;;5000733;28;21162;-70
2022/05/08 07:24:08;;;;;;;21.17;18.00;;;13.80;99.90;;;;;;5001318;28;20463;-68
2022/05/08 07:26:36;;;;;;;20.53;18.67;;;13.80;99.90;;;;;;5001771;28;20489;-67
2022/05/08 07:29:04;;;;;;;21.60;19.37;;;13.70;99.90;;;;;;5001749;28;20532;-67
2022/05/08 07:31:32;;;;;;;21.33;18.93;;;13.80;99.90;;;;;;5002025;28;20468;-67
2022/05/08 07:36:43;;;;;;;21.63;19.30;;;13.90;99.90;;;;;;5002212;28;21176;-67
2022/05/08 07:39:10;;;;;;;20.40;17.80;;;13.90;99.90;;;;;;5002180;28;20468;-68
2022/05/08 07:41:38;;;;;;;19.63;17.87;;;13.80;99.90;;;;;;5001904;28;20460;-68
2022/05/08 07:44:05;;;;;;;21.23;19.10;;;14.00;99.90;;;;;;5001231;28;20947;-67
2022/05/08 07:46:33;;;;;;;21.33;17.60;;;13.90;99.90;;;;;;5001081;28;20474;-67
2022/05/08 07:49:00;;;;;;;20.83;18.60;;;13.60;99.90;;;;;;5000923;28;21181;-67
2022/05/08 07:51:27;;;;;;;21.33;19.07;;;13.80;99.90;;;;;;5005178;28;20465;-68
2022/05/08 07:53:53;;;;;;;19.70;17.57;;;13.70;99.90;;;;;;5003823;28;20478;-67
2022/05/08 07:56:20;;;;;;;20.00;18.23;;;14.00;99.90;;;;;;5006488;28;20473;-68
2022/05/08 07:58:47;;;;;;;21.13;18.90;;;14.10;99.90;;;;;;5003929;28;20484;-67
2022/05/08 08:01:14;;;;;;;21.80;19.83;;;14.10;99.90;;;;;;5012420;28;20999;-66
2022/05/08 08:03:42;;;;;;;18.70;17.10;;;14.00;99.90;;;;;;5032158;28;20475;-66
2022/05/08 08:06:09;;;;;;;21.87;18.10;;;14.20;99.90;;;;;;5008146;28;20511;-69
2022/05/08 08:08:36;;;;;;;19.00;17.33;;;14.30;99.90;;;;;;5004656;28;20464;-67
2022/05/08 08:11:05;;;;;;;20.97;18.90;;;14.10;99.90;;;;;;5005441;28;20461;-67
2022/05/08 08:13:32;;;;;;;21.07;18.93;;;14.00;99.90;;;;;;5005450;28;20891;-66
2022/05/08 08:16:00;;;;;;;21.33;19.13;;;13.80;99.90;;;;;;5005747;28;20463;-66
2022/05/08 08:18:27;;;;;;;22.30;19.37;;;13.90;99.90;;;;;;5006542;28;21121;-67
2022/05/08 08:20:56;;;;;;;28.90;19.40;;;13.80;99.90;;;;;;5006441;28;20484;-69
2022/05/08 08:23:23;;;;;;;22.40;19.97;;;14.10;99.90;;;;;;5005217;28;21041;-67
2022/05/08 08:25:51;;;;;;;22.50;20.20;;;14.20;99.90;;;;;;5005172;28;20925;-68
2022/05/08 08:28:18;;;;;;;23.90;20.53;;;14.50;99.90;;;;;;5005763;28;20468;-68
2022/05/08 08:30:45;;;;;;;27.67;20.03;;;14.50;99.90;;;;;;5004535;28;20969;-69
2022/05/08 08:33:12;;;;;;;25.00;20.00;;;14.50;99.90;;;;;;5005029;28;20461;-69
2022/05/08 08:35:39;;;;;;;21.80;19.53;;;14.80;99.90;;;;;;5005174;28;20474;-69
2022/05/08 08:38:08;;;;;;;22.47;20.00;;;15.10;99.90;;;;;;5004776;28;20474;-66
2022/05/08 08:40:40;;;;;;;20.73;18.10;;;15.10;99.90;;;;;;5005535;28;20483;-66
2022/05/08 08:43:09;;;;;;;23.13;18.60;;;15.10;99.90;;;;;;5005213;28;20469;-66
2022/05/08 08:48:27;;;;;;;20.13;18.20;;;15.10;99.90;;;;;;5004448;28;20479;-67
2022/05/08 08:50:55;;;;;;;21.30;18.10;;;15.10;99.90;;;;;;5004848;28;20474;-66
2022/05/08 08:53:24;;;;;;;26.97;18.60;;;15.00;99.90;;;;;;5004708;28;20457;-67
2022/05/08 08:55:51;;;;;;;21.63;19.00;;;15.10;99.90;;;;;;5004416;28;20562;-67
2022/05/08 08:58:19;;;;;;;20.10;18.10;;;15.60;99.90;;;;;;5004176;28;20480;-67
2022/05/08 09:00:47;;;;;;;25.27;18.83;;;16.10;99.90;;;;;;5004547;28;20499;-67
2022/05/08 09:03:20;;;;;;;22.70;17.77;;;16.70;99.90;;;;;;5004274;28;20464;-66
2022/05/08 09:05:47;;;;;;;20.53;18.30;;;17.10;99.90;;;;;;5004107;28;21273;-67
2022/05/08 09:08:27;;;;;;;21.13;19.00;;;17.30;99.90;;;;;;5004702;28;20892;-66
2022/05/08 09:10:56;;;;;;;21.13;18.97;;;17.80;99.90;;;;;;5005148;28;20859;-66
2022/05/08 09:13:24;;;;;;;22.10;18.27;;;17.60;99.90;;;;;;5004651;28;20917;-66
2022/05/08 09:15:53;;;;;;;19.33;17.40;;;17.90;99.90;;;;;;5002543;28;20487;-67
2022/05/08 09:18:20;;;;;;;24.67;18.73;;;18.00;99.90;;;;;;5002937;28;20457;-66
2022/05/08 09:20:48;;;;;;;24.00;19.33;;;18.00;99.90;;;;;;5002045;28;22369;-67
2022/05/08 09:23:17;;;;;;;19.60;17.57;;;18.00;99.90;;;;;;5002214;28;20575;-66
2022/05/08 09:25:47;;;;;;;18.50;16.87;;;18.10;99.90;;;;;;5002507;28;20537;-66
2022/05/08 09:28:14;;;;;;;19.10;17.50;;;18.40;99.90;;;;;;5002929;28;22433;-68
2022/05/08 09:31:05;;;;;;;19.10;17.50;;;18.10;99.90;;;;;;5004177;28;20460;-68
2022/05/08 09:33:34;;;;;;;18.10;16.30;;;18.00;99.90;;;;;;5003711;28;20479;-65
2022/05/08 09:36:03;;;;;;;22.70;16.53;;;18.10;99.90;;;;;;5003484;28;21167;-67
2022/05/08 09:38:47;;;;;;;25.00;18.20;;;18.40;99.90;;;;;;5004598;28;21606;-66
2022/05/08 09:41:17;;;;;;;19.27;17.47;;;18.70;99.90;;;;;;5004838;28;20491;-66
2022/05/08 09:43:44;;;;;;;18.27;16.60;;;18.90;99.90;;;;;;5003992;28;20908;-66
2022/05/08 09:46:11;;;;;;;22.40;18.00;;;19.00;99.90;;;;;;5003675;28;20464;-67
2022/05/08 09:48:38;;;;;;;20.70;17.47;;;19.10;99.90;;;;;;5010904;28;20461;-66
2022/05/08 09:51:07;;;;;;;18.73;16.73;;;18.90;99.90;;;;;;5028382;28;20473;-66
2022/05/08 09:53:35;;;;;;;18.73;15.80;;;18.70;99.90;;;;;;5012016;28;20468;-66
2022/05/08 09:56:04;;;;;;;19.17;17.27;;;18.70;99.90;;;;;;5003196;28;20472;-67
2022/05/08 09:58:33;;;;;;;18.40;16.73;;;19.30;99.90;;;;;;5001532;28;20578;-68
2022/05/08 10:01:00;;;;;;;18.87;17.13;;;19.60;99.90;;;;;;5001050;28;20497;-67
2022/05/08 10:03:28;;;;;;;16.80;15.00;;;19.70;99.90;;;;;;5001864;28;20802;-67
2022/05/08 10:05:59;;;;;;;19.20;17.13;;;20.30;99.90;;;;;;5002256;28;20495;-68
2022/05/08 10:08:29;;;;;;;18.30;16.50;;;20.10;99.90;;;;;;5002691;28;20468;-68
2022/05/08 10:13:55;;;;;;;18.80;17.00;;;21.20;99.40;;;;;;5001694;28;21305;-68
2022/05/08 10:16:44;;;;;;;20.03;17.37;;;20.90;98.40;;;;;;5001361;28;20475;-68
2022/05/08 10:19:45;;;;;;;17.53;16.07;;;20.80;96.30;;;;;;5001466;28;20467;-68
2022/05/08 10:22:13;;;;;;;18.50;16.70;;;20.40;93.60;;;;;;5001780;28;20551;-68
2022/05/08 10:24:41;;;;;;;17.47;15.97;;;19.80;93.70;;;;;;5001190;28;20457;-68
2022/05/08 10:27:10;;;;;;;18.27;16.37;;;20.90;93.90;;;;;;5002750;28;20476;-67
2022/05/08 10:29:39;;;;;;;18.30;16.43;;;20.90;92.40;;;;;;5003591;28;21477;-68
2022/05/08 10:32:09;;;;;;;18.37;16.77;;;21.30;93.10;;;;;;5002761;28;20456;-68
2022/05/08 10:34:37;;;;;;;18.33;16.70;;;22.10;92.20;;;;;;5025460;28;20880;-68
2022/05/08 10:37:29;;;;;;;18.80;17.33;;;22.30;91.50;;;;;;5028313;28;20488;-69
2022/05/08 10:39:56;;;;;;;18.87;17.00;;;22.90;91.40;;;;;;5025216;28;20607;-68
2022/05/08 10:42:46;;;;;;;18.70;17.10;;;22.60;90.00;;;;;;5020101;28;20506;-70
2022/05/08 10:45:40;;;;;;;17.80;16.10;;;22.70;90.00;;;;;;5001760;28;20848;-68
2022/05/08 10:48:12;;;;;;;18.43;16.63;;;23.00;88.30;;;;;;5001782;28;20461;-70
2022/05/08 10:50:40;;;;;;;17.00;15.63;;;22.70;86.40;;;;;;5001602;28;20477;-68
2022/05/08 10:53:07;;;;;;;17.90;16.47;;;22.70;84.70;;;;;;5000904;28;20905;-70
2022/05/08 10:55:34;;;;;;;23.20;15.50;;;23.60;82.30;;;;;;5000697;28;20566;-69
2022/05/08 10:58:02;;;;;;;17.60;16.00;;;23.40;79.30;;;;;;5002533;28;20484;-68
2022/05/08 11:00:30;;;;;;;16.97;15.47;;;22.90;73.60;;;;;;5000703;28;20473;-68
2022/05/08 11:03:00;;;;;;;16.80;15.50;;;21.90;72.00;;;;;;5000467;28;20468;-68
2022/05/08 11:05:28;;;;;;;17.83;15.63;;;21.90;70.10;;;;;;5000700;28;20523;-68
2022/05/08 11:07:57;;;;;;;16.57;15.07;;;22.20;66.70;;;;;;5002757;28;20467;-68
2022/05/08 11:10:27;;;;;;;16.97;15.37;;;21.90;68.80;;;;;;5000959;28;20995;-67
2022/05/08 11:13:00;;;;;;;16.90;15.67;;;21.80;66.00;;;;;;5002298;28;20480;-68
2022/05/08 11:15:28;;;;;;;15.70;14.50;;;22.10;70.90;;;;;;5001764;28;20465;-68
2022/05/08 11:18:09;;;;;;;16.53;15.23;;;23.10;66.20;;;;;;5003477;28;20986;-68
2022/05/08 11:20:37;;;;;;;16.77;15.57;;;23.20;64.60;;;;;;5002256;28;20456;-68
2022/05/08 11:23:05;;;;;;;16.83;15.60;;;23.40;68.10;;;;;;5003254;28;20921;-69
2022/05/08 11:25:33;;;;;;;16.43;14.97;;;24.20;66.20;;;;;;5002377;28;21000;-68
2022/05/08 11:28:01;;;;;;;16.93;15.47;;;24.20;64.50;;;;;;5001718;28;20472;-68
2022/05/08 11:30:32;;;;;;;16.57;15.37;;;24.40;65.10;;;;;;5002016;28;20471;-69
2022/05/08 11:36:06;;;;;;;16.90;15.50;;;24.30;60.70;;;;;;5001723;28;21037;-69
2022/05/08 11:38:44;;;;;;;16.70;14.40;;;23.70;64.30;;;;;;5001559;28;20974;-68
2022/05/08 11:41:12;;;;;;;17.23;15.57;;;24.70;64.80;;;;;;5000305;28;20981;-67
2022/05/08 11:43:44;;;;;;;18.20;16.67;;;24.70;63.50;;;;;;5000469;28;20461;-67
2022/05/08 11:46:15;;;;;;;17.20;15.50;;;24.70;65.60;;;;;;5001209;28;22525;-69
2022/05/08 11:48:42;;;;;;;16.10;14.80;;;24.90;65.00;;;;;;5002308;28;20464;-70
2022/05/08 11:51:11;;;;;;;16.27;15.07;;;25.70;63.50;;;;;;5001946;28;20474;-69
2022/05/08 11:53:43;;;;;;;16.00;14.80;;;26.20;57.10;;;;;;5001746;28;20578;-68
2022/05/08 11:56:38;;;;;;;16.63;15.33;;;26.00;56.50;;;;;;5001121;28;21653;-70
2022/05/08 11:59:15;;;;;;;15.63;14.43;;;25.80;55.80;;;;;;5001524;28;20496;-66
2022/05/08 12:01:48;;;;;;;16.30;15.00;;;25.60;56.20;;;;;;5001140;28;20503;-67
2022/05/08 12:04:26;;;;;;;17.00;15.27;;;26.10;56.40;;;;;;5001610;28;20970;-66
2022/05/08 12:07:03;;;;;;;16.70;15.27;;;26.60;54.90;;;;;;5001530;28;20479;-68
2022/05/08 12:09:32;;;;;;;17.17;15.40;;;25.00;54.10;;;;;;5001582;28;20460;-66
2022/05/08 12:12:25;;;;;;;18.20;16.70;;;24.70;56.70;;;;;;5001904;28;20975;-66
2022/05/08 12:14:53;;;;;;;16.43;15.13;;;24.80;56.60;;;;;;5002507;28;20841;-67
2022/05/08 12:17:20;;;;;;;16.60;15.10;;;25.80;56.40;;;;;;5001289;28;20472;-67
2022/05/08 12:19:51;;;;;;;15.83;14.53;;;26.50;53.30;;;;;;5001939;28;21942;-68
2022/05/08 12:22:20;;;;;;;17.30;15.07;;;25.80;54.00;;;;;;5001088;28;20972;-66
2022/05/08 12:24:48;;;;;;;16.23;14.97;;;25.40;53.80;;;;;;5002076;28;22043;-66
2022/05/08 12:27:15;;;;;;;17.30;15.80;;;25.90;53.20;;;;;;5002177;28;20780;-66
2022/05/08 12:29:45;;;;;;;16.83;15.40;;;26.30;52.80;;;;;;5001813;28;20816;-66
2022/05/08 12:32:13;;;;;;;16.93;15.20;;;26.20;52.00;;;;;;5002002;28;20472;-66
2022/05/08 12:34:41;;;;;;;15.73;14.73;;;25.70;51.00;;;;;;5026181;28;20461;-66
2022/05/08 12:37:09;;;;;;;17.60;14.90;;;26.00;52.80;;;;;;5029179;28;21070;-67
2022/05/08 12:39:38;;;;;;;16.77;15.37;;;25.60;52.70;;;;;;5030507;28;20465;-67
2022/05/08 12:42:06;;;;;;;16.07;14.53;;;25.80;52.20;;;;;;5005836;28;20544;-68
2022/05/08 12:44:34;;;;;;;16.67;15.30;;;25.90;52.70;;;;;;5005926;28;20724;-66
2022/05/08 12:47:01;;;;;;;15.50;14.30;;;26.30;51.70;;;;;;5005305;28;20849;-67
2022/05/08 12:49:28;;;;;;;19.10;14.93;;;25.90;51.40;;;;;;5005025;28;21413;-66
2022/05/08 12:51:55;;;;;;;14.60;13.47;;;25.40;51.60;;;;;;5005304;28;20831;-67
2022/05/08 12:54:22;;;;;;;13.70;12.83;;;25.70;50.50;;;;;;5005690;28;20992;-67
2022/05/08 12:56:51;;;;;;;15.37;14.37;;;25.80;51.50;;;;;;5005040;28;20472;-66
2022/05/08 13:02:02;;;;;;;16.60;15.10;;;27.20;48.30;;;;;;5005723;28;20499;-67
2022/05/08 13:04:29;;;;;;;15.97;14.37;;;26.80;48.90;;;;;;5004311;28;21085;-67